sensor_id;sensor_type;location;lat;lon;timestamp;temperature;humidity
55151;DHT22;41041;43.162;20.538;2022-07-23T00:01:35;563.50;1817.60
55151;DHT22;41041;43.162;20.538;2022-07-23T00:04:01;563.40;1817.60
55151;DHT22;41041;43.162;20.538;2022-07-23T00:06:27;563.30;1817.60
55151;DHT22;41041;43.162;20.538;2022-07-23T00:08:53;563.30;1817.60
55151;DHT22;41041;43.162;20.538;2022-07-23T00:11:18;563.20;1843.20
55151;DHT22;41041;43.162;20.538;2022-07-23T00:13:44;563.20;1817.60
55151;DHT22;41041;43.162;20.538;2022-07-23T00:16:10;563.20;1817.60
55151;DHT22;41041;43.162;20.538;2022-07-23T00:18:36;563.20;1817.60
55151;DHT22;41041;43.162;20.538;2022-07-23T00:21:01;563.20;1817.60
55151;DHT22;41041;43.162;20.538;2022-07-23T00:23:27;563.20;1792.00
55151;DHT22;41041;43.162;20.538;2022-07-23T00:25:54;538.50;1766.40
55151;DHT22;41041;43.162;20.538;2022-07-23T00:28:19;538.50;1766.40
55151;DHT22;41041;43.162;20.538;2022-07-23T00:30:45;538.50;1817.60
55151;DHT22;41041;43.162;20.538;2022-07-23T00:33:11;538.50;1792.00
55151;DHT22;41041;43.162;20.538;2022-07-23T00:35:37;563.20;1817.60
55151;DHT22;41041;43.162;20.538;2022-07-23T00:38:05;563.20;1817.60
55151;DHT22;41041;43.162;20.538;2022-07-23T00:40:31;538.50;1817.60
55151;DHT22;41041;43.162;20.538;2022-07-23T00:42:58;538.50;1817.60
55151;DHT22;41041;43.162;20.538;2022-07-23T00:45:24;538.50;1817.60
55151;DHT22;41041;43.162;20.538;2022-07-23T00:47:50;538.40;1817.60
55151;DHT22;41041;43.162;20.538;2022-07-23T00:50:15;538.30;1843.20
55151;DHT22;41041;43.162;20.538;2022-07-23T00:52:41;538.40;1817.60
55151;DHT22;41041;43.162;20.538;2022-07-23T00:55:08;538.30;1817.60
55151;DHT22;41041;43.162;20.538;2022-07-23T00:57:34;538.30;1817.60
55151;DHT22;41041;43.162;20.538;2022-07-23T01:00:00;538.30;1843.20
55151;DHT22;41041;43.162;20.538;2022-07-23T01:02:25;538.20;1843.20
55151;DHT22;41041;43.162;20.538;2022-07-23T01:04:51;538.10;1843.20
55151;DHT22;41041;43.162;20.538;2022-07-23T01:07:17;538.20;1843.20
55151;DHT22;41041;43.162;20.538;2022-07-23T01:09:44;538.00;1843.20
55151;DHT22;41041;43.162;20.538;2022-07-23T01:12:21;537.90;1868.80
55151;DHT22;41041;43.162;20.538;2022-07-23T01:14:56;537.80;1868.80
55151;DHT22;41041;43.162;20.538;2022-07-23T01:17:21;537.80;1894.40
55151;DHT22;41041;43.162;20.538;2022-07-23T01:19:47;537.80;1894.40
55151;DHT22;41041;43.162;20.538;2022-07-23T01:22:13;537.80;1868.80
55151;DHT22;41041;43.162;20.538;2022-07-23T01:24:40;537.80;1868.80
55151;DHT22;41041;43.162;20.538;2022-07-23T01:27:05;537.80;1843.20
55151;DHT22;41041;43.162;20.538;2022-07-23T01:29:31;537.80;1868.80
55151;DHT22;41041;43.162;20.538;2022-07-23T01:34:25;537.60;1894.40
55151;DHT22;41041;43.162;20.538;2022-07-23T01:36:51;537.60;1920.00
55151;DHT22;41041;43.162;20.538;2022-07-23T01:39:16;537.60;1894.40
55151;DHT22;41041;43.162;20.538;2022-07-23T01:41:42;512.90;1868.80
55151;DHT22;41041;43.162;20.538;2022-07-23T01:44:07;537.60;1894.40
55151;DHT22;41041;43.162;20.538;2022-07-23T01:46:33;512.90;1868.80
55151;DHT22;41041;43.162;20.538;2022-07-23T01:48:59;512.90;1868.80
55151;DHT22;41041;43.162;20.538;2022-07-23T01:51:24;512.80;1894.40
55151;DHT22;41041;43.162;20.538;2022-07-23T01:53:50;512.80;1894.40
55151;DHT22;41041;43.162;20.538;2022-07-23T01:56:15;512.90;1868.80
55151;DHT22;41041;43.162;20.538;2022-07-23T01:58:41;512.80;1894.40
55151;DHT22;41041;43.162;20.538;2022-07-23T02:01:06;512.80;1894.40
55151;DHT22;41041;43.162;20.538;2022-07-23T02:03:32;512.70;1868.80
55151;DHT22;41041;43.162;20.538;2022-07-23T02:06:15;512.70;1868.80
55151;DHT22;41041;43.162;20.538;2022-07-23T02:08:41;512.70;1868.80
55151;DHT22;41041;43.162;20.538;2022-07-23T02:11:06;512.60;1868.80
55151;DHT22;41041;43.162;20.538;2022-07-23T02:13:32;512.60;1868.80
55151;DHT22;41041;43.162;20.538;2022-07-23T02:15:58;512.60;1868.80
55151;DHT22;41041;43.162;20.538;2022-07-23T02:18:23;512.60;1868.80
55151;DHT22;41041;43.162;20.538;2022-07-23T02:20:49;512.60;1868.80
55151;DHT22;41041;43.162;20.538;2022-07-23T02:23:14;512.50;1894.40
55151;DHT22;41041;43.162;20.538;2022-07-23T02:25:40;512.60;1894.40
55151;DHT22;41041;43.162;20.538;2022-07-23T02:28:06;512.60;1894.40
55151;DHT22;41041;43.162;20.538;2022-07-23T02:30:31;512.60;1894.40
55151;DHT22;41041;43.162;20.538;2022-07-23T02:32:57;512.60;1868.80
55151;DHT22;41041;43.162;20.538;2022-07-23T02:35:23;512.50;1894.40
55151;DHT22;41041;43.162;20.538;2022-07-23T02:37:48;512.30;1920.00
55151;DHT22;41041;43.162;20.538;2022-07-23T02:40:14;512.30;1920.00
55151;DHT22;41041;43.162;20.538;2022-07-23T02:42:39;512.30;1920.00
55151;DHT22;41041;43.162;20.538;2022-07-23T02:45:06;512.40;1920.00
55151;DHT22;41041;43.162;20.538;2022-07-23T02:47:32;512.20;1920.00
55151;DHT22;41041;43.162;20.538;2022-07-23T02:49:58;512.20;1920.00
55151;DHT22;41041;43.162;20.538;2022-07-23T02:52:23;512.10;1920.00
55151;DHT22;41041;43.162;20.538;2022-07-23T02:54:49;512.20;1920.00
55151;DHT22;41041;43.162;20.538;2022-07-23T02:57:15;512.10;1920.00
55151;DHT22;41041;43.162;20.538;2022-07-23T02:59:40;512.10;1920.00
55151;DHT22;41041;43.162;20.538;2022-07-23T03:02:08;512.00;1945.60
55151;DHT22;41041;43.162;20.538;2022-07-23T03:04:33;487.30;1945.60
55151;DHT22;41041;43.162;20.538;2022-07-23T03:09:28;487.10;1971.20
55151;DHT22;41041;43.162;20.538;2022-07-23T03:11:54;487.20;1945.60
55151;DHT22;41041;43.162;20.538;2022-07-23T03:14:29;487.20;1971.20
55151;DHT22;41041;43.162;20.538;2022-07-23T03:16:54;487.20;1971.20
55151;DHT22;41041;43.162;20.538;2022-07-23T03:19:20;487.20;1945.60
55151;DHT22;41041;43.162;20.538;2022-07-23T03:21:59;487.20;1971.20
55151;DHT22;41041;43.162;20.538;2022-07-23T03:24:24;487.30;1971.20
55151;DHT22;41041;43.162;20.538;2022-07-23T03:27:10;487.20;1971.20
55151;DHT22;41041;43.162;20.538;2022-07-23T03:29:44;487.20;1971.20
55151;DHT22;41041;43.162;20.538;2022-07-23T03:32:09;487.20;1971.20
55151;DHT22;41041;43.162;20.538;2022-07-23T03:34:37;487.10;1996.80
55151;DHT22;41041;43.162;20.538;2022-07-23T03:37:03;487.20;1996.80
55151;DHT22;41041;43.162;20.538;2022-07-23T03:39:28;487.20;1996.80
55151;DHT22;41041;43.162;20.538;2022-07-23T03:41:54;487.10;1996.80
55151;DHT22;41041;43.162;20.538;2022-07-23T03:44:20;487.10;1996.80
55151;DHT22;41041;43.162;20.538;2022-07-23T03:46:45;487.10;1996.80
55151;DHT22;41041;43.162;20.538;2022-07-23T03:49:11;487.00;2022.40
55151;DHT22;41041;43.162;20.538;2022-07-23T03:51:36;487.00;2022.40
55151;DHT22;41041;43.162;20.538;2022-07-23T03:54:02;487.10;1996.80
55151;DHT22;41041;43.162;20.538;2022-07-23T03:56:28;487.10;2022.40
55151;DHT22;41041;43.162;20.538;2022-07-23T03:58:53;487.10;1996.80
55151;DHT22;41041;43.162;20.538;2022-07-23T04:01:19;487.20;1996.80
55151;DHT22;41041;43.162;20.538;2022-07-23T04:03:44;487.20;1996.80
55151;DHT22;41041;43.162;20.538;2022-07-23T04:06:13;487.20;1996.80
55151;DHT22;41041;43.162;20.538;2022-07-23T04:08:38;487.20;1996.80
55151;DHT22;41041;43.162;20.538;2022-07-23T04:11:04;487.20;1996.80
55151;DHT22;41041;43.162;20.538;2022-07-23T04:13:31;487.20;1996.80
55151;DHT22;41041;43.162;20.538;2022-07-23T04:16:00;487.20;1996.80
55151;DHT22;41041;43.162;20.538;2022-07-23T04:18:26;487.20;2022.40
55151;DHT22;41041;43.162;20.538;2022-07-23T04:20:51;487.20;2022.40
55151;DHT22;41041;43.162;20.538;2022-07-23T04:23:17;487.10;2022.40
55151;DHT22;41041;43.162;20.538;2022-07-23T04:25:43;487.10;2048.00
55151;DHT22;41041;43.162;20.538;2022-07-23T04:28:08;487.20;2048.00
55151;DHT22;41041;43.162;20.538;2022-07-23T04:30:34;487.20;2048.00
55151;DHT22;41041;43.162;20.538;2022-07-23T04:33:00;487.20;2022.40
55151;DHT22;41041;43.162;20.538;2022-07-23T04:38:04;487.30;2022.40
55151;DHT22;41041;43.162;20.538;2022-07-23T04:40:30;487.30;2022.40
55151;DHT22;41041;43.162;20.538;2022-07-23T04:42:56;487.30;2048.00
55151;DHT22;41041;43.162;20.538;2022-07-23T04:45:21;487.30;2048.00
55151;DHT22;41041;43.162;20.538;2022-07-23T04:47:48;487.30;2048.00
55151;DHT22;41041;43.162;20.538;2022-07-23T04:50:14;512.00;2048.00
55151;DHT22;41041;43.162;20.538;2022-07-23T04:52:44;487.30;2048.00
55151;DHT22;41041;43.162;20.538;2022-07-23T04:55:09;512.00;2048.00
55151;DHT22;41041;43.162;20.538;2022-07-23T04:57:42;512.10;2048.00
55151;DHT22;41041;43.162;20.538;2022-07-23T05:00:08;512.10;2048.00
55151;DHT22;41041;43.162;20.538;2022-07-23T05:02:34;512.20;2048.00
55151;DHT22;41041;43.162;20.538;2022-07-23T05:07:54;512.40;2048.00
55151;DHT22;41041;43.162;20.538;2022-07-23T05:10:20;512.40;2048.00
55151;DHT22;41041;43.162;20.538;2022-07-23T05:15:40;512.30;2073.60
55151;DHT22;41041;43.162;20.538;2022-07-23T05:18:08;512.50;2048.00
55151;DHT22;41041;43.162;20.538;2022-07-23T05:20:34;512.50;2048.00
55151;DHT22;41041;43.162;20.538;2022-07-23T05:23:00;512.60;2048.00
55151;DHT22;41041;43.162;20.538;2022-07-23T05:25:25;512.50;2048.00
55151;DHT22;41041;43.162;20.538;2022-07-23T05:28:01;512.60;2048.00
55151;DHT22;41041;43.162;20.538;2022-07-23T05:30:26;512.70;2048.00
55151;DHT22;41041;43.162;20.538;2022-07-23T05:32:52;512.80;2048.00
55151;DHT22;41041;43.162;20.538;2022-07-23T05:35:17;512.90;2022.40
55151;DHT22;41041;43.162;20.538;2022-07-23T05:37:43;537.70;2048.00
55151;DHT22;41041;43.162;20.538;2022-07-23T05:40:09;537.70;2022.40
55151;DHT22;41041;43.162;20.538;2022-07-23T05:42:35;538.10;2022.40
55151;DHT22;41041;43.162;20.538;2022-07-23T05:45:01;537.80;2022.40
55151;DHT22;41041;43.162;20.538;2022-07-23T05:47:27;537.90;1996.80
55151;DHT22;41041;43.162;20.538;2022-07-23T05:49:52;538.20;1996.80
55151;DHT22;41041;43.162;20.538;2022-07-23T05:52:18;538.00;1996.80
55151;DHT22;41041;43.162;20.538;2022-07-23T05:54:44;538.00;1996.80
55151;DHT22;41041;43.162;20.538;2022-07-23T05:57:09;538.20;1971.20
55151;DHT22;41041;43.162;20.538;2022-07-23T05:59:35;538.40;2022.40
55151;DHT22;41041;43.162;20.538;2022-07-23T06:02:00;538.30;2022.40
55151;DHT22;41041;43.162;20.538;2022-07-23T06:04:26;538.30;2048.00
55151;DHT22;41041;43.162;20.538;2022-07-23T06:06:52;538.30;2022.40
55151;DHT22;41041;43.162;20.538;2022-07-23T06:09:17;538.40;2022.40
55151;DHT22;41041;43.162;20.538;2022-07-23T06:11:43;538.40;2022.40
55151;DHT22;41041;43.162;20.538;2022-07-23T06:14:09;563.30;2073.60
55151;DHT22;41041;43.162;20.538;2022-07-23T06:16:34;538.50;1996.80
55151;DHT22;41041;43.162;20.538;2022-07-23T06:19:00;563.20;1971.20
55151;DHT22;41041;43.162;20.538;2022-07-23T06:21:26;563.20;1945.60
55151;DHT22;41041;43.162;20.538;2022-07-23T06:23:51;563.20;1945.60
55151;DHT22;41041;43.162;20.538;2022-07-23T06:26:17;563.40;1971.20
55151;DHT22;41041;43.162;20.538;2022-07-23T06:28:42;563.50;1945.60
55151;DHT22;41041;43.162;20.538;2022-07-23T06:31:08;563.60;1945.60
55151;DHT22;41041;43.162;20.538;2022-07-23T06:33:34;563.90;1843.20
55151;DHT22;41041;43.162;20.538;2022-07-23T06:35:59;563.70;1843.20
55151;DHT22;41041;43.162;20.538;2022-07-23T06:38:25;563.70;1843.20
55151;DHT22;41041;43.162;20.538;2022-07-23T06:40:51;563.80;1868.80
55151;DHT22;41041;43.162;20.538;2022-07-23T06:43:16;564.00;1868.80
55151;DHT22;41041;43.162;20.538;2022-07-23T06:48:35;588.80;1843.20
55151;DHT22;41041;43.162;20.538;2022-07-23T06:51:01;588.90;1843.20
55151;DHT22;41041;43.162;20.538;2022-07-23T06:53:27;589.10;1843.20
55151;DHT22;41041;43.162;20.538;2022-07-23T06:55:52;588.90;1792.00
55151;DHT22;41041;43.162;20.538;2022-07-23T06:58:18;588.90;1817.60
55151;DHT22;41041;43.162;20.538;2022-07-23T07:03:48;589.10;1868.80
55151;DHT22;41041;43.162;20.538;2022-07-23T07:06:13;589.20;1868.80
55151;DHT22;41041;43.162;20.538;2022-07-23T07:08:39;589.40;1843.20
55151;DHT22;41041;43.162;20.538;2022-07-23T07:11:08;589.40;1792.00
55151;DHT22;41041;43.162;20.538;2022-07-23T07:13:34;589.60;1792.00
55151;DHT22;41041;43.162;20.538;2022-07-23T07:15:59;589.60;1792.00
55151;DHT22;41041;43.162;20.538;2022-07-23T07:18:25;614.40;1766.40
55151;DHT22;41041;43.162;20.538;2022-07-23T07:20:50;614.70;1766.40
55151;DHT22;41041;43.162;20.538;2022-07-23T07:23:16;614.60;1740.80
55151;DHT22;41041;43.162;20.538;2022-07-23T07:25:41;614.80;1766.40
55151;DHT22;41041;43.162;20.538;2022-07-23T07:28:07;614.80;1766.40
55151;DHT22;41041;43.162;20.538;2022-07-23T07:33:04;615.30;1766.40
55151;DHT22;41041;43.162;20.538;2022-07-23T07:35:29;615.20;1740.80
55151;DHT22;41041;43.162;20.538;2022-07-23T07:38:08;615.30;1740.80
55151;DHT22;41041;43.162;20.538;2022-07-23T07:43:37;640.10;1689.60
55151;DHT22;41041;43.162;20.538;2022-07-23T07:46:03;640.20;1715.20
55151;DHT22;41041;43.162;20.538;2022-07-23T07:48:29;640.50;1715.20
55151;DHT22;41041;43.162;20.538;2022-07-23T07:50:54;640.40;1689.60
55151;DHT22;41041;43.162;20.538;2022-07-23T07:53:20;640.50;1664.00
55151;DHT22;41041;43.162;20.538;2022-07-23T07:55:46;640.60;1664.00
55151;DHT22;41041;43.162;20.538;2022-07-23T07:58:12;640.70;1664.00
55151;DHT22;41041;43.162;20.538;2022-07-23T08:09:52;665.80;1689.60
55151;DHT22;41041;43.162;20.538;2022-07-23T08:15:25;665.90;1664.00
55151;DHT22;41041;43.162;20.538;2022-07-23T08:21:10;666.20;1664.00
55151;DHT22;41041;43.162;20.538;2022-07-23T08:29:43;666.50;1612.80
55151;DHT22;41041;43.162;20.538;2022-07-23T08:32:08;691.20;1612.80
55151;DHT22;41041;43.162;20.538;2022-07-23T08:37:37;691.40;1536.00
55151;DHT22;41041;43.162;20.538;2022-07-23T08:40:03;691.50;1536.00
55151;DHT22;41041;43.162;20.538;2022-07-23T08:42:29;691.60;1536.00
55151;DHT22;41041;43.162;20.538;2022-07-23T08:47:58;691.80;1510.40
55151;DHT22;41041;43.162;20.538;2022-07-23T08:50:24;691.80;1510.40
55151;DHT22;41041;43.162;20.538;2022-07-23T08:52:50;691.80;1536.00
55151;DHT22;41041;43.162;20.538;2022-07-23T08:55:17;692.00;1510.40
55151;DHT22;41041;43.162;20.538;2022-07-23T09:00:47;716.80;1536.00
55151;DHT22;41041;43.162;20.538;2022-07-23T09:03:20;716.90;1536.00
55151;DHT22;41041;43.162;20.538;2022-07-23T09:05:46;717.00;1561.60
55151;DHT22;41041;43.162;20.538;2022-07-23T09:16:20;717.40;1510.40
55151;DHT22;41041;43.162;20.538;2022-07-23T09:21:16;717.60;1510.40
55151;DHT22;41041;43.162;20.538;2022-07-23T09:23:47;717.70;1510.40
55151;DHT22;41041;43.162;20.538;2022-07-23T09:26:27;717.70;1536.00
55151;DHT22;41041;43.162;20.538;2022-07-23T09:28:58;742.50;1459.20
55151;DHT22;41041;43.162;20.538;2022-07-23T09:31:30;742.60;1510.40
55151;DHT22;41041;43.162;20.538;2022-07-23T09:34:28;742.70;1510.40
55151;DHT22;41041;43.162;20.538;2022-07-23T09:40:07;742.90;1382.40
55151;DHT22;41041;43.162;20.538;2022-07-23T09:45:36;743.00;1382.40
55151;DHT22;41041;43.162;20.538;2022-07-23T09:48:11;743.10;1356.80
55151;DHT22;41041;43.162;20.538;2022-07-23T09:50:38;743.20;1382.40
55151;DHT22;41041;43.162;20.538;2022-07-23T09:53:03;743.30;1305.60
55151;DHT22;41041;43.162;20.538;2022-07-23T09:55:33;743.20;1331.20
55151;DHT22;41041;43.162;20.538;2022-07-23T09:58:02;768.00;1331.20
55151;DHT22;41041;43.162;20.538;2022-07-23T10:00:28;768.00;1356.80
55151;DHT22;41041;43.162;20.538;2022-07-23T10:02:55;768.20;1305.60
55151;DHT22;41041;43.162;20.538;2022-07-23T10:05:21;768.20;1305.60
55151;DHT22;41041;43.162;20.538;2022-07-23T10:07:46;768.30;1305.60
55151;DHT22;41041;43.162;20.538;2022-07-23T10:10:13;768.40;1280.00
55151;DHT22;41041;43.162;20.538;2022-07-23T10:12:39;768.40;1280.00
55151;DHT22;41041;43.162;20.538;2022-07-23T10:15:16;768.50;1356.80
55151;DHT22;41041;43.162;20.538;2022-07-23T10:17:42;768.70;1254.40
55151;DHT22;41041;43.162;20.538;2022-07-23T10:20:08;768.80;1280.00
55151;DHT22;41041;43.162;20.538;2022-07-23T10:25:49;793.90;1254.40
55151;DHT22;41041;43.162;20.538;2022-07-23T10:28:33;794.10;1203.20
55151;DHT22;41041;43.162;20.538;2022-07-23T10:33:59;794.30;1203.20
55151;DHT22;41041;43.162;20.538;2022-07-23T10:39:08;794.40;1228.80
55151;DHT22;41041;43.162;20.538;2022-07-23T10:44:32;794.50;1177.60
55151;DHT22;41041;43.162;20.538;2022-07-23T10:47:03;794.40;1152.00
55151;DHT22;41041;43.162;20.538;2022-07-23T10:52:33;794.50;1177.60
55151;DHT22;41041;43.162;20.538;2022-07-23T11:00:31;819.40;1152.00
55151;DHT22;41041;43.162;20.538;2022-07-23T11:03:01;819.70;1126.40
55151;DHT22;41041;43.162;20.538;2022-07-23T11:05:43;819.70;1075.20
55151;DHT22;41041;43.162;20.538;2022-07-23T11:08:11;819.70;1075.20
55151;DHT22;41041;43.162;20.538;2022-07-23T11:10:42;819.60;1075.20
55151;DHT22;41041;43.162;20.538;2022-07-23T11:16:13;819.60;1100.80
55151;DHT22;41041;43.162;20.538;2022-07-23T11:21:44;819.70;1126.40
55151;DHT22;41041;43.162;20.538;2022-07-23T11:24:14;819.90;1075.20
55151;DHT22;41041;43.162;20.538;2022-07-23T11:32:20;844.80;1126.40
55151;DHT22;41041;43.162;20.538;2022-07-23T11:37:53;845.00;1152.00
55151;DHT22;41041;43.162;20.538;2022-07-23T11:40:24;845.00;1100.80
55151;DHT22;41041;43.162;20.538;2022-07-23T11:43:08;845.00;1075.20
55151;DHT22;41041;43.162;20.538;2022-07-23T11:45:35;845.00;1075.20
55151;DHT22;41041;43.162;20.538;2022-07-23T11:48:03;845.30;998.40
55151;DHT22;41041;43.162;20.538;2022-07-23T11:53:33;845.40;921.60
55151;DHT22;41041;43.162;20.538;2022-07-23T11:59:02;845.50;870.40
55151;DHT22;41041;43.162;20.538;2022-07-23T12:01:28;845.50;947.20
55151;DHT22;41041;43.162;20.538;2022-07-23T12:03:53;845.40;998.40
55151;DHT22;41041;43.162;20.538;2022-07-23T12:06:19;845.50;972.80
55151;DHT22;41041;43.162;20.538;2022-07-23T12:08:44;845.50;972.80
55151;DHT22;41041;43.162;20.538;2022-07-23T12:11:11;845.60;998.40
55151;DHT22;41041;43.162;20.538;2022-07-23T12:13:37;845.60;972.80
55151;DHT22;41041;43.162;20.538;2022-07-23T12:16:02;845.60;998.40
55151;DHT22;41041;43.162;20.538;2022-07-23T12:18:30;845.60;972.80
55151;DHT22;41041;43.162;20.538;2022-07-23T12:20:56;845.60;1049.60
55151;DHT22;41041;43.162;20.538;2022-07-23T12:23:40;845.60;998.40
55151;DHT22;41041;43.162;20.538;2022-07-23T12:26:06;845.60;998.40
55151;DHT22;41041;43.162;20.538;2022-07-23T12:28:33;845.70;1049.60
55151;DHT22;41041;43.162;20.538;2022-07-23T12:31:03;845.70;1024.00
55151;DHT22;41041;43.162;20.538;2022-07-23T12:33:33;870.40;1024.00
55151;DHT22;41041;43.162;20.538;2022-07-23T12:36:00;870.40;1024.00
55151;DHT22;41041;43.162;20.538;2022-07-23T12:38:26;870.70;998.40
55151;DHT22;41041;43.162;20.538;2022-07-23T12:43:20;870.60;972.80
55151;DHT22;41041;43.162;20.538;2022-07-23T12:45:53;870.50;998.40
55151;DHT22;41041;43.162;20.538;2022-07-23T12:53:18;870.80;947.20
55151;DHT22;41041;43.162;20.538;2022-07-23T12:55:46;871.00;947.20
55151;DHT22;41041;43.162;20.538;2022-07-23T12:58:13;871.20;998.40
55151;DHT22;41041;43.162;20.538;2022-07-23T13:00:59;871.20;1024.00
55151;DHT22;41041;43.162;20.538;2022-07-23T13:06:01;871.20;1024.00
55151;DHT22;41041;43.162;20.538;2022-07-23T13:08:27;896.00;972.80
55151;DHT22;41041;43.162;20.538;2022-07-23T13:10:53;896.10;947.20
55151;DHT22;41041;43.162;20.538;2022-07-23T13:13:21;896.10;921.60
55151;DHT22;41041;43.162;20.538;2022-07-23T13:15:47;896.00;947.20
55151;DHT22;41041;43.162;20.538;2022-07-23T13:18:13;871.30;947.20
55151;DHT22;41041;43.162;20.538;2022-07-23T13:20:38;871.30;921.60
55151;DHT22;41041;43.162;20.538;2022-07-23T13:23:07;871.30;947.20
55151;DHT22;41041;43.162;20.538;2022-07-23T13:25:43;871.30;921.60
55151;DHT22;41041;43.162;20.538;2022-07-23T13:28:09;896.10;921.60
55151;DHT22;41041;43.162;20.538;2022-07-23T13:30:34;896.20;921.60
55151;DHT22;41041;43.162;20.538;2022-07-23T13:33:01;896.40;896.00
55151;DHT22;41041;43.162;20.538;2022-07-23T13:35:27;896.50;921.60
55151;DHT22;41041;43.162;20.538;2022-07-23T13:37:52;896.70;921.60
55151;DHT22;41041;43.162;20.538;2022-07-23T13:40:18;896.80;896.00
55151;DHT22;41041;43.162;20.538;2022-07-23T13:42:44;896.80;896.00
55151;DHT22;41041;43.162;20.538;2022-07-23T13:45:10;896.80;896.00
55151;DHT22;41041;43.162;20.538;2022-07-23T13:47:35;896.80;896.00
55151;DHT22;41041;43.162;20.538;2022-07-23T13:50:01;896.80;870.40
55151;DHT22;41041;43.162;20.538;2022-07-23T13:52:27;896.80;896.00
55151;DHT22;41041;43.162;20.538;2022-07-23T13:57:55;896.70;921.60
55151;DHT22;41041;43.162;20.538;2022-07-23T14:00:21;896.50;870.40
55151;DHT22;41041;43.162;20.538;2022-07-23T14:02:47;896.30;870.40
55151;DHT22;41041;43.162;20.538;2022-07-23T14:05:14;896.40;896.00
55151;DHT22;41041;43.162;20.538;2022-07-23T14:07:40;896.40;921.60
55151;DHT22;41041;43.162;20.538;2022-07-23T14:10:08;896.60;896.00
55151;DHT22;41041;43.162;20.538;2022-07-23T14:12:34;896.80;896.00
55151;DHT22;41041;43.162;20.538;2022-07-23T14:14:59;921.70;947.20
55151;DHT22;41041;43.162;20.538;2022-07-23T14:17:40;921.80;870.40
55151;DHT22;41041;43.162;20.538;2022-07-23T14:20:08;921.90;896.00
55151;DHT22;41041;43.162;20.538;2022-07-23T14:22:34;921.90;896.00
55151;DHT22;41041;43.162;20.538;2022-07-23T14:25:00;922.30;896.00
55151;DHT22;41041;43.162;20.538;2022-07-23T14:27:26;922.30;870.40
55151;DHT22;41041;43.162;20.538;2022-07-23T14:29:53;922.50;870.40
55151;DHT22;41041;43.162;20.538;2022-07-23T14:32:18;922.40;896.00
55151;DHT22;41041;43.162;20.538;2022-07-23T14:34:44;922.50;896.00
55151;DHT22;41041;43.162;20.538;2022-07-23T14:37:12;947.40;921.60
55151;DHT22;41041;43.162;20.538;2022-07-23T14:39:39;947.40;870.40
55151;DHT22;41041;43.162;20.538;2022-07-23T14:42:22;947.50;896.00
55151;DHT22;41041;43.162;20.538;2022-07-23T14:44:49;947.60;896.00
55151;DHT22;41041;43.162;20.538;2022-07-23T14:47:15;947.80;870.40
55151;DHT22;41041;43.162;20.538;2022-07-23T14:49:41;947.70;896.00
55151;DHT22;41041;43.162;20.538;2022-07-23T14:52:21;947.80;896.00
55151;DHT22;41041;43.162;20.538;2022-07-23T14:54:46;948.00;896.00
55151;DHT22;41041;43.162;20.538;2022-07-23T14:57:12;947.90;870.40
55151;DHT22;41041;43.162;20.538;2022-07-23T14:59:48;948.10;870.40
55151;DHT22;41041;43.162;20.538;2022-07-23T15:02:14;948.10;870.40
55151;DHT22;41041;43.162;20.538;2022-07-23T15:04:39;972.80;870.40
55151;DHT22;41041;43.162;20.538;2022-07-23T15:07:05;972.90;870.40
55151;DHT22;41041;43.162;20.538;2022-07-23T15:09:31;973.10;921.60
55151;DHT22;41041;43.162;20.538;2022-07-23T15:11:57;973.10;921.60
55151;DHT22;41041;43.162;20.538;2022-07-23T15:14:23;973.00;896.00
55151;DHT22;41041;43.162;20.538;2022-07-23T15:16:48;973.10;870.40
55151;DHT22;41041;43.162;20.538;2022-07-23T15:19:14;973.10;896.00
55151;DHT22;41041;43.162;20.538;2022-07-23T15:21:39;973.30;870.40
55151;DHT22;41041;43.162;20.538;2022-07-23T15:24:05;973.40;819.20
55151;DHT22;41041;43.162;20.538;2022-07-23T15:26:31;973.50;844.80
55151;DHT22;41041;43.162;20.538;2022-07-23T15:28:56;973.60;844.80
55151;DHT22;41041;43.162;20.538;2022-07-23T15:31:24;973.60;844.80
55151;DHT22;41041;43.162;20.538;2022-07-23T15:33:50;973.60;819.20
55151;DHT22;41041;43.162;20.538;2022-07-23T15:36:19;973.60;844.80
55151;DHT22;41041;43.162;20.538;2022-07-23T15:38:44;973.60;870.40
55151;DHT22;41041;43.162;20.538;2022-07-23T15:41:10;973.60;844.80
55151;DHT22;41041;43.162;20.538;2022-07-23T15:43:36;973.70;844.80
55151;DHT22;41041;43.162;20.538;2022-07-23T15:46:01;973.70;844.80
55151;DHT22;41041;43.162;20.538;2022-07-23T15:48:28;998.40;844.80
55151;DHT22;41041;43.162;20.538;2022-07-23T15:50:54;998.50;844.80
55151;DHT22;41041;43.162;20.538;2022-07-23T15:53:20;998.40;844.80
55151;DHT22;41041;43.162;20.538;2022-07-23T15:55:45;998.50;844.80
55151;DHT22;41041;43.162;20.538;2022-07-23T15:58:13;998.50;844.80
55151;DHT22;41041;43.162;20.538;2022-07-23T16:00:39;998.50;844.80
55151;DHT22;41041;43.162;20.538;2022-07-23T16:03:04;973.60;793.60
55151;DHT22;41041;43.162;20.538;2022-07-23T16:05:30;973.60;819.20
55151;DHT22;41041;43.162;20.538;2022-07-23T16:07:57;973.60;819.20
55151;DHT22;41041;43.162;20.538;2022-07-23T16:10:23;973.70;819.20
55151;DHT22;41041;43.162;20.538;2022-07-23T16:12:51;998.40;819.20
55151;DHT22;41041;43.162;20.538;2022-07-23T16:15:16;998.50;819.20
55151;DHT22;41041;43.162;20.538;2022-07-23T16:17:42;973.70;793.60
55151;DHT22;41041;43.162;20.538;2022-07-23T16:20:08;973.50;819.20
55151;DHT22;41041;43.162;20.538;2022-07-23T16:22:34;973.40;819.20
55151;DHT22;41041;43.162;20.538;2022-07-23T16:25:00;973.30;819.20
55151;DHT22;41041;43.162;20.538;2022-07-23T16:27:26;973.10;896.00
55151;DHT22;41041;43.162;20.538;2022-07-23T16:29:53;972.80;921.60
55151;DHT22;41041;43.162;20.538;2022-07-23T16:32:18;948.00;896.00
55151;DHT22;41041;43.162;20.538;2022-07-23T16:34:44;947.80;844.80
55151;DHT22;41041;43.162;20.538;2022-07-23T16:37:10;947.60;844.80
55151;DHT22;41041;43.162;20.538;2022-07-23T16:39:35;947.50;844.80
55151;DHT22;41041;43.162;20.538;2022-07-23T16:42:02;947.30;870.40
55151;DHT22;41041;43.162;20.538;2022-07-23T16:44:28;947.20;870.40